Time;durP1;ratioP1;P1;durP2;ratioP2;P2;SDS_P1;SDS_P2;PMS_P1;PMS_P2;Temp;Humidity;BMP_temperature;BMP_pressure;BME280_temperature;BME280_humidity;BME280_pressure;Samples;Min_cycle;Max_cycle;Signal;HPM_P1;HPM_P2
2021/08/30 00:02:23;;;;;;;1.98;1.20;;;16.20;99.90;;;;;;4988238;28;20165;-73
2021/08/30 00:04:48;;;;;;;1.92;1.40;;;16.20;99.90;;;;;;4987664;28;20022;-73
2021/08/30 00:07:14;;;;;;;1.45;1.15;;;16.10;99.90;;;;;;4989082;28;20037;-73
2021/08/30 00:09:40;;;;;;;2.65;1.40;;;16.10;99.90;;;;;;4987816;28;20026;-72
2021/08/30 00:12:06;;;;;;;4.00;1.40;;;16.10;99.90;;;;;;4983582;28;20113;-73
2021/08/30 00:14:31;;;;;;;1.60;1.40;;;16.10;99.90;;;;;;4983888;28;20054;-72
2021/08/30 00:16:58;;;;;;;3.65;1.25;;;16.00;99.90;;;;;;4987866;28;20030;-73
2021/08/30 00:19:24;;;;;;;3.42;1.52;;;16.00;99.90;;;;;;4987663;28;20022;-73
2021/08/30 00:21:50;;;;;;;2.28;1.40;;;15.90;99.90;;;;;;4988506;28;20665;-73
2021/08/30 00:24:21;;;;;;;1.73;1.40;;;15.90;99.90;;;;;;4987055;28;20042;-73
2021/08/30 00:26:47;;;;;;;2.22;1.20;;;15.90;99.90;;;;;;4987554;28;20500;-72
2021/08/30 00:29:12;;;;;;;1.88;1.13;;;15.90;99.90;;;;;;4987858;28;20062;-72
2021/08/30 00:31:38;;;;;;;2.58;1.40;;;15.80;99.90;;;;;;4986975;28;20045;-73
2021/08/30 00:34:03;;;;;;;1.77;1.40;;;15.80;99.90;;;;;;4988413;28;20121;-73
2021/08/30 00:36:29;;;;;;;2.72;1.50;;;15.80;99.90;;;;;;4988187;28;20037;-73
2021/08/30 00:38:55;;;;;;;2.63;1.40;;;15.90;99.90;;;;;;4987462;28;20045;-73
2021/08/30 00:41:22;;;;;;;1.23;1.13;;;15.90;99.90;;;;;;4987459;28;20035;-73
2021/08/30 00:43:47;;;;;;;2.10;1.50;;;15.90;99.90;;;;;;4988212;28;20137;-72
2021/08/30 00:46:17;;;;;;;1.80;1.52;;;15.90;99.90;;;;;;4987432;28;20485;-72
2021/08/30 00:48:46;;;;;;;2.33;1.23;;;16.00;99.90;;;;;;4984711;28;20030;-73
2021/08/30 00:51:12;;;;;;;4.60;1.35;;;16.00;99.90;;;;;;4986372;28;20018;-73
2021/08/30 00:53:38;;;;;;;1.50;1.30;;;16.00;99.90;;;;;;4989795;28;20065;-73
2021/08/30 00:56:04;;;;;;;1.75;1.55;;;16.10;99.90;;;;;;4989760;28;20038;-72
2021/08/30 00:58:29;;;;;;;1.50;1.30;;;16.10;99.90;;;;;;4990795;28;20050;-72
2021/08/30 01:00:55;;;;;;;2.35;1.80;;;16.10;99.90;;;;;;4991220;28;20026;-72
2021/08/30 01:03:20;;;;;;;2.35;1.67;;;16.10;99.90;;;;;;4991069;28;20022;-72
2021/08/30 01:05:53;;;;;;;1.83;1.60;;;16.00;99.90;;;;;;4991367;28;20074;-72
2021/08/30 01:08:34;;;;;;;4.00;1.83;;;16.10;99.90;;;;;;4987925;28;20489;-73
2021/08/30 01:11:08;;;;;;;2.22;1.70;;;16.00;99.90;;;;;;4984875;28;20088;-72
2021/08/30 01:13:44;;;;;;;6.85;1.80;;;16.00;99.90;;;;;;4991430;28;20133;-73
2021/08/30 01:16:12;;;;;;;5.47;1.92;;;16.00;99.90;;;;;;4990708;28;20040;-73
2021/08/30 01:18:40;;;;;;;2.67;1.90;;;16.10;99.90;;;;;;4990217;28;20034;-73
2021/08/30 01:21:22;;;;;;;2.63;1.77;;;16.10;99.90;;;;;;4990555;28;20111;-73
2021/08/30 01:24:01;;;;;;;2.97;1.90;;;16.00;99.90;;;;;;4991256;28;20084;-73
2021/08/30 01:26:28;;;;;;;3.92;2.10;;;16.10;99.90;;;;;;4991091;28;20374;-73
2021/08/30 01:29:12;;;;;;;8.98;1.77;;;16.10;99.90;;;;;;4991002;28;20393;-72
2021/08/30 01:32:01;;;;;;;2.97;2.10;;;16.10;99.90;;;;;;4984206;28;20118;-73
2021/08/30 01:34:28;;;;;;;2.42;1.88;;;16.10;99.90;;;;;;4988378;28;20038;-72
2021/08/30 01:36:54;;;;;;;3.83;2.08;;;16.10;99.90;;;;;;4989778;28;20026;-73
2021/08/30 01:39:20;;;;;;;4.05;1.83;;;16.10;99.90;;;;;;4988556;28;20084;-72
2021/08/30 01:41:47;;;;;;;2.40;2.00;;;16.10;99.90;;;;;;4990073;28;20029;-73
2021/08/30 01:44:13;;;;;;;2.17;1.70;;;16.10;99.90;;;;;;4990867;28;20038;-72
2021/08/30 01:46:40;;;;;;;2.45;1.77;;;16.10;99.90;;;;;;4990730;28;20038;-72
2021/08/30 01:49:09;;;;;;;1.80;1.70;;;16.10;99.90;;;;;;4989704;28;20104;-72
2021/08/30 01:51:36;;;;;;;2.72;2.10;;;16.10;99.90;;;;;;4990088;28;20034;-72
2021/08/30 01:54:02;;;;;;;2.75;2.40;;;16.10;99.90;;;;;;4978543;28;20265;-72
2021/08/30 01:56:29;;;;;;;2.78;1.90;;;16.00;99.90;;;;;;4987837;28;20037;-73
2021/08/30 02:01:40;;;;;;;2.85;2.13;;;16.10;99.90;;;;;;4989825;28;20045;-73
2021/08/30 02:04:06;;;;;;;5.00;2.85;;;16.10;99.90;;;;;;4990162;28;20668;-73
2021/08/30 02:06:33;;;;;;;3.70;2.42;;;16.10;99.90;;;;;;4989169;28;20033;-72
2021/08/30 02:08:59;;;;;;;5.22;2.78;;;16.10;99.90;;;;;;4984361;28;20565;-72
2021/08/30 02:11:35;;;;;;;7.82;3.35;;;16.10;99.90;;;;;;4986840;28;20029;-72
2021/08/30 02:14:03;;;;;;;6.22;2.85;;;16.10;99.90;;;;;;4989975;28;20046;-73
2021/08/30 02:16:29;;;;;;;4.40;3.05;;;16.10;99.90;;;;;;4990955;28;20034;-72
2021/08/30 02:19:08;;;;;;;5.22;3.10;;;16.10;99.90;;;;;;4988613;28;20038;-72
2021/08/30 02:21:57;;;;;;;6.63;3.50;;;16.10;99.90;;;;;;4989365;28;20131;-72
2021/08/30 02:24:31;;;;;;;4.70;3.30;;;16.10;99.90;;;;;;4989574;28;20065;-72
2021/08/30 02:27:08;;;;;;;9.73;2.92;;;16.00;99.90;;;;;;4988941;28;20034;-73
2021/08/30 02:30:06;;;;;;;3.55;2.80;;;16.10;99.90;;;;;;4989755;28;20057;-73
2021/08/30 02:32:33;;;;;;;3.65;2.85;;;16.10;99.90;;;;;;4989163;28;20109;-72
2021/08/30 02:35:13;;;;;;;4.40;2.90;;;16.10;99.90;;;;;;4989183;28;20543;-72
2021/08/30 02:37:40;;;;;;;4.57;2.92;;;16.00;99.90;;;;;;4989196;28;20389;-72
2021/08/30 02:40:07;;;;;;;3.78;2.90;;;16.00;99.90;;;;;;4989895;28;20480;-73
2021/08/30 02:42:34;;;;;;;3.97;3.05;;;16.00;99.90;;;;;;4982795;28;20124;-73
2021/08/30 02:45:02;;;;;;;4.00;2.60;;;16.00;99.90;;;;;;4989250;28;20671;-73
2021/08/30 02:47:30;;;;;;;4.85;2.92;;;16.00;99.90;;;;;;4990279;28;20026;-73
2021/08/30 02:49:57;;;;;;;4.13;2.40;;;16.00;99.90;;;;;;4989270;28;20042;-72
2021/08/30 02:52:24;;;;;;;4.70;2.80;;;16.00;99.90;;;;;;4990241;28;20034;-72
2021/08/30 02:54:51;;;;;;;4.43;3.15;;;16.00;99.90;;;;;;4983373;28;20065;-72
2021/08/30 02:57:18;;;;;;;3.58;2.55;;;15.90;99.90;;;;;;4990508;28;20030;-72
2021/08/30 02:59:44;;;;;;;4.75;2.60;;;16.00;99.90;;;;;;4988137;28;20140;-72
2021/08/30 03:02:11;;;;;;;5.78;2.78;;;16.00;99.90;;;;;;4987847;28;20030;-71
2021/08/30 03:04:37;;;;;;;3.20;2.38;;;15.90;99.90;;;;;;4988534;28;20481;-71
2021/08/30 03:07:03;;;;;;;3.80;2.53;;;15.90;99.90;;;;;;4988266;28;20034;-72
2021/08/30 03:09:29;;;;;;;4.00;2.63;;;15.90;99.90;;;;;;4989455;28;20030;-72
2021/08/30 03:11:56;;;;;;;3.40;2.15;;;15.90;99.90;;;;;;4988553;28;20038;-71
2021/08/30 03:14:25;;;;;;;3.05;2.28;;;15.90;99.90;;;;;;4988227;28;20030;-72
2021/08/30 03:16:54;;;;;;;4.25;2.38;;;15.90;99.90;;;;;;4986321;28;20508;-72
2021/08/30 03:19:20;;;;;;;3.50;2.60;;;15.90;99.90;;;;;;4988185;28;20069;-72
2021/08/30 03:21:47;;;;;;;4.22;2.25;;;15.90;99.90;;;;;;4988435;28;20038;-72
2021/08/30 03:24:15;;;;;;;6.65;2.70;;;15.90;99.90;;;;;;4988833;28;20042;-72
2021/08/30 03:26:41;;;;;;;4.03;2.90;;;16.00;99.90;;;;;;4984182;28;20473;-72
2021/08/30 03:29:07;;;;;;;5.15;2.80;;;15.90;99.90;;;;;;4988168;28;20042;-72
2021/08/30 03:31:34;;;;;;;4.72;2.95;;;15.90;99.90;;;;;;4987325;28;20023;-72
2021/08/30 03:34:01;;;;;;;3.88;2.65;;;15.90;99.90;;;;;;4986035;28;20038;-72
2021/08/30 03:36:27;;;;;;;2.92;2.35;;;16.00;99.90;;;;;;4987939;28;20604;-73
2021/08/30 03:38:54;;;;;;;4.68;2.95;;;15.90;99.90;;;;;;4989501;28;20030;-72
2021/08/30 03:41:20;;;;;;;7.90;3.35;;;15.90;99.90;;;;;;4986556;28;20022;-72
2021/08/30 03:43:46;;;;;;;4.68;3.13;;;15.90;99.90;;;;;;4987719;28;20033;-72
2021/08/30 03:46:12;;;;;;;6.80;3.28;;;16.00;99.90;;;;;;4988628;28;20027;-72
2021/08/30 03:48:38;;;;;;;6.45;3.22;;;16.00;99.90;;;;;;4986881;28;20100;-72
2021/08/30 03:51:05;;;;;;;4.47;3.05;;;16.00;99.90;;;;;;4990338;28;20038;-72
2021/08/30 03:53:32;;;;;;;4.50;3.17;;;16.00;99.90;;;;;;4985323;28;20034;-73
2021/08/30 03:55:58;;;;;;;7.38;3.35;;;16.00;99.90;;;;;;4986891;28;20026;-72
2021/08/30 03:58:26;;;;;;;5.30;3.10;;;16.00;99.90;;;;;;4988943;28;20058;-72
2021/08/30 04:00:53;;;;;;;4.97;3.40;;;16.00;99.90;;;;;;4987256;28;21516;-72
2021/08/30 04:03:21;;;;;;;7.30;3.70;;;16.00;99.90;;;;;;4988261;28;20022;-72
2021/08/30 04:05:49;;;;;;;6.93;3.75;;;16.00;99.90;;;;;;4982985;28;20026;-72
2021/08/30 04:08:14;;;;;;;7.97;3.83;;;16.00;99.90;;;;;;4987658;28;20065;-72
2021/08/30 04:10:41;;;;;;;5.70;3.17;;;16.00;99.90;;;;;;4984814;28;20050;-72
2021/08/30 04:13:06;;;;;;;9.00;3.85;;;16.00;99.90;;;;;;4979378;28;20038;-72
2021/08/30 04:15:32;;;;;;;11.60;4.53;;;16.00;99.90;;;;;;4988523;28;20072;-73
2021/08/30 04:17:58;;;;;;;7.18;3.70;;;16.00;99.90;;;;;;4987105;28;20108;-72
2021/08/30 04:20:24;;;;;;;7.18;4.13;;;16.00;99.90;;;;;;4984616;28;20030;-73
2021/08/30 04:22:49;;;;;;;5.32;3.90;;;16.00;99.90;;;;;;4987879;28;20014;-72
2021/08/30 04:25:15;;;;;;;9.15;4.20;;;16.00;99.90;;;;;;4986681;28;20775;-72
2021/08/30 04:27:41;;;;;;;7.13;4.25;;;16.00;99.90;;;;;;4985096;28;20125;-72
2021/08/30 04:30:07;;;;;;;8.93;4.00;;;16.00;99.90;;;;;;4983569;28;20061;-74
2021/08/30 04:32:35;;;;;;;8.80;4.50;;;16.00;99.90;;;;;;4990879;28;20125;-73
2021/08/30 04:35:06;;;;;;;8.95;5.00;;;16.00;99.90;;;;;;4991305;28;20783;-72
2021/08/30 04:37:32;;;;;;;20.13;5.78;;;16.00;99.90;;;;;;4986160;28;20035;-72
2021/08/30 04:39:58;;;;;;;12.27;5.63;;;15.90;99.90;;;;;;4990713;28;20042;-73
2021/08/30 04:42:23;;;;;;;9.77;5.10;;;16.00;99.90;;;;;;4992627;28;20080;-73
2021/08/30 04:44:50;;;;;;;8.52;4.72;;;16.00;99.90;;;;;;4990215;28;20027;-73
2021/08/30 04:47:15;;;;;;;9.85;5.38;;;16.00;99.90;;;;;;4987683;28;20141;-73
2021/08/30 04:49:41;;;;;;;14.05;6.18;;;16.00;99.90;;;;;;4992398;28;20113;-73
2021/08/30 04:52:07;;;;;;;11.35;5.15;;;16.00;99.90;;;;;;4981990;28;20030;-75
2021/08/30 04:54:32;;;;;;;9.73;5.20;;;16.00;99.90;;;;;;4986750;28;20034;-80
2021/08/30 04:56:58;;;;;;;11.70;5.57;;;16.00;99.90;;;;;;4986580;28;20112;-75
2021/08/30 04:59:23;;;;;;;9.98;5.43;;;16.00;99.90;;;;;;4988855;28;20440;-72
2021/08/30 05:01:49;;;;;;;10.23;4.97;;;16.00;99.90;;;;;;4987839;28;20068;-72
2021/08/30 05:04:14;;;;;;;10.13;5.03;;;16.10;99.90;;;;;;4982374;28;20023;-72
2021/08/30 05:06:40;;;;;;;8.73;4.57;;;16.00;99.90;;;;;;4990517;28;20649;-73
2021/08/30 05:09:05;;;;;;;12.52;4.30;;;16.00;99.90;;;;;;4987064;28;20045;-73
2021/08/30 05:11:31;;;;;;;7.85;4.47;;;16.10;99.90;;;;;;4989143;28;20022;-73
2021/08/30 05:13:58;;;;;;;8.70;5.25;;;16.10;99.90;;;;;;4991154;28;20527;-72
2021/08/30 05:16:25;;;;;;;7.40;4.20;;;16.10;99.90;;;;;;4989563;28;20026;-73
2021/08/30 05:18:50;;;;;;;6.07;3.90;;;16.10;99.90;;;;;;4989579;28;20429;-73
2021/08/30 05:21:16;;;;;;;7.15;4.50;;;16.10;99.90;;;;;;4987751;28;20022;-72
2021/08/30 05:23:44;;;;;;;8.55;4.95;;;16.10;99.90;;;;;;4981548;28;20297;-72
2021/08/30 05:26:10;;;;;;;9.52;5.03;;;16.10;99.90;;;;;;4986167;28;20548;-72
2021/08/30 05:28:35;;;;;;;8.80;5.28;;;16.20;99.90;;;;;;4983878;28;20038;-73
2021/08/30 05:31:01;;;;;;;7.32;4.50;;;16.20;99.90;;;;;;4990092;28;20042;-73
2021/08/30 05:33:26;;;;;;;9.10;5.10;;;16.20;99.90;;;;;;4992212;28;20030;-73
2021/08/30 05:35:51;;;;;;;10.25;5.82;;;16.20;99.90;;;;;;4990529;28;20023;-72
2021/08/30 05:38:17;;;;;;;14.52;5.70;;;16.30;99.90;;;;;;4989778;28;20065;-72
2021/08/30 05:40:42;;;;;;;8.02;5.05;;;16.20;99.90;;;;;;4989025;28;20519;-72
2021/08/30 05:43:08;;;;;;;9.13;5.15;;;16.30;99.90;;;;;;4987975;28;20105;-71
2021/08/30 05:45:34;;;;;;;13.55;5.93;;;16.30;99.90;;;;;;4991060;28;20496;-72
2021/08/30 05:48:00;;;;;;;10.90;4.88;;;16.30;99.90;;;;;;4989735;28;20022;-72
2021/08/30 05:50:25;;;;;;;12.25;5.40;;;16.30;99.90;;;;;;4989679;28;20030;-73
2021/08/30 05:52:51;;;;;;;9.73;5.28;;;16.30;99.90;;;;;;4989162;28;20121;-73
2021/08/30 05:55:17;;;;;;;8.32;5.20;;;16.30;99.90;;;;;;4988477;28;20108;-74
2021/08/30 05:57:42;;;;;;;7.45;4.68;;;16.40;99.90;;;;;;4983601;28;20088;-73
2021/08/30 06:00:08;;;;;;;10.20;5.32;;;16.40;99.90;;;;;;4984397;28;20046;-73
2021/08/30 06:02:34;;;;;;;12.27;6.25;;;16.40;99.90;;;;;;4987804;28;20023;-73
2021/08/30 06:05:11;;;;;;;11.52;5.50;;;16.50;99.90;;;;;;4988223;28;20073;-72
2021/08/30 06:07:39;;;;;;;12.60;5.55;;;16.50;99.90;;;;;;4987436;28;20076;-72
2021/08/30 06:10:05;;;;;;;14.20;6.80;;;16.50;99.90;;;;;;4989307;28;20124;-72
2021/08/30 06:12:30;;;;;;;11.90;6.30;;;16.50;99.90;;;;;;4989409;28;20556;-74
2021/08/30 06:14:56;;;;;;;11.40;6.18;;;16.50;99.90;;;;;;4985478;28;20142;-73
2021/08/30 06:17:21;;;;;;;11.57;6.43;;;16.60;99.90;;;;;;4988794;28;20608;-73
2021/08/30 06:19:47;;;;;;;14.55;6.50;;;16.60;99.90;;;;;;4989378;28;20117;-73
2021/08/30 06:22:12;;;;;;;6.20;4.05;;;16.60;99.90;;;;;;4988882;28;20029;-72
2021/08/30 06:24:40;;;;;;;10.90;6.00;;;16.60;99.90;;;;;;4990411;28;20097;-73
2021/08/30 06:27:07;;;;;;;11.30;5.97;;;16.60;99.90;;;;;;4989573;28;20042;-73
2021/08/30 06:29:32;;;;;;;14.05;6.63;;;16.60;99.90;;;;;;4988583;28;20058;-74
2021/08/30 06:31:58;;;;;;;14.02;5.90;;;16.60;99.90;;;;;;4987587;28;20057;-76
2021/08/30 06:34:26;;;;;;;13.63;6.32;;;16.60;99.90;;;;;;4987966;28;20034;-72
2021/08/30 06:36:52;;;;;;;12.20;5.90;;;16.60;99.90;;;;;;4989145;28;20049;-74
2021/08/30 06:39:17;;;;;;;9.70;5.60;;;16.60;99.90;;;;;;4988727;28;20038;-74
2021/08/30 06:41:43;;;;;;;9.20;6.07;;;16.70;99.90;;;;;;4982838;28;20045;-73
2021/08/30 06:44:11;;;;;;;10.85;5.63;;;16.70;99.90;;;;;;4999268;28;20029;-73
2021/08/30 06:46:37;;;;;;;11.75;6.03;;;16.70;99.90;;;;;;5004546;28;20026;-73
2021/08/30 06:49:03;;;;;;;8.70;5.68;;;16.70;99.90;;;;;;4999684;28;20045;-74
2021/08/30 06:51:28;;;;;;;9.18;5.72;;;16.80;99.90;;;;;;5000159;28;20030;-73
2021/08/30 06:53:53;;;;;;;13.90;6.55;;;16.80;99.90;;;;;;5004444;28;20048;-73
2021/08/30 06:56:19;;;;;;;10.70;5.60;;;16.80;99.90;;;;;;5003382;28;20053;-74
2021/08/30 06:58:44;;;;;;;9.88;5.90;;;16.80;99.90;;;;;;4983721;28;20046;-73
2021/08/30 07:01:10;;;;;;;11.48;5.82;;;16.80;99.90;;;;;;4993167;28;20048;-74
2021/08/30 07:03:36;;;;;;;14.85;6.30;;;16.80;99.90;;;;;;4994649;28;20106;-73
2021/08/30 07:06:02;;;;;;;9.75;5.80;;;16.90;99.90;;;;;;4989525;28;20548;-73
2021/08/30 07:08:27;;;;;;;13.20;6.00;;;16.90;99.90;;;;;;4987851;28;20035;-72
2021/08/30 07:10:53;;;;;;;13.23;5.93;;;16.90;99.90;;;;;;4986716;28;20030;-72
2021/08/30 07:13:18;;;;;;;11.02;6.25;;;16.90;99.90;;;;;;4988397;28;20118;-72
2021/08/30 07:15:44;;;;;;;13.77;6.53;;;16.90;99.90;;;;;;4986596;28;20022;-72
2021/08/30 07:18:09;;;;;;;11.68;5.85;;;16.90;99.90;;;;;;4979702;28;20088;-72
2021/08/30 07:20:34;;;;;;;18.40;6.72;;;16.90;99.90;;;;;;4989038;28;20038;-72
2021/08/30 07:23:00;;;;;;;11.88;6.13;;;16.90;99.90;;;;;;4988686;28;20026;-72
2021/08/30 07:25:26;;;;;;;11.10;6.00;;;16.90;99.90;;;;;;4988895;28;20097;-73
2021/08/30 07:27:51;;;;;;;12.88;6.22;;;16.90;99.90;;;;;;4982904;28;20451;-73
2021/08/30 07:30:16;;;;;;;12.80;6.18;;;16.90;99.90;;;;;;4988985;28;20437;-72
2021/08/30 07:32:43;;;;;;;12.40;6.22;;;17.00;99.90;;;;;;4980429;28;20108;-72
2021/08/30 07:35:09;;;;;;;15.60;6.60;;;17.00;99.90;;;;;;4982887;28;20030;-72
2021/08/30 07:37:36;;;;;;;13.95;6.60;;;17.10;99.90;;;;;;4987931;28;20034;-72
2021/08/30 07:40:01;;;;;;;12.40;6.15;;;17.10;99.90;;;;;;4988057;28;20539;-72
2021/08/30 07:42:27;;;;;;;11.80;6.25;;;17.10;99.90;;;;;;4987221;28;20026;-72
2021/08/30 07:44:52;;;;;;;12.88;6.32;;;17.10;99.90;;;;;;4977708;28;20123;-73
2021/08/30 07:47:18;;;;;;;9.13;5.45;;;17.10;99.90;;;;;;4968873;28;20031;-73
2021/08/30 07:49:43;;;;;;;12.88;5.35;;;17.20;99.90;;;;;;4985638;28;20026;-73
2021/08/30 07:52:09;;;;;;;11.90;6.20;;;17.20;99.90;;;;;;4989401;28;20026;-72
2021/08/30 07:54:34;;;;;;;11.77;5.22;;;17.10;99.90;;;;;;4983803;28;20034;-73
2021/08/30 07:57:00;;;;;;;12.25;6.05;;;17.20;99.90;;;;;;4985845;28;20041;-73
2021/08/30 07:59:25;;;;;;;12.88;5.38;;;17.30;99.90;;;;;;4987613;28;20070;-73
2021/08/30 08:01:51;;;;;;;13.55;5.43;;;17.30;99.90;;;;;;4986325;28;20030;-73
2021/08/30 08:04:16;;;;;;;10.48;5.57;;;17.30;99.90;;;;;;4987795;28;20381;-73
2021/08/30 08:06:54;;;;;;;12.48;5.90;;;17.40;99.90;;;;;;4987601;28;20022;-72
2021/08/30 08:09:20;;;;;;;9.00;5.20;;;17.40;99.90;;;;;;4988209;28;20030;-72
2021/08/30 08:11:46;;;;;;;10.32;5.00;;;17.40;99.90;;;;;;4981211;28;20074;-72
2021/08/30 08:14:21;;;;;;;9.90;5.43;;;17.40;99.90;;;;;;4975049;28;20033;-73
2021/08/30 08:16:46;;;;;;;10.85;5.47;;;17.40;99.90;;;;;;4988054;28;20057;-72
2021/08/30 08:19:14;;;;;;;8.23;4.35;;;17.50;99.90;;;;;;4987364;28;20054;-72
2021/08/30 08:21:40;;;;;;;7.53;4.03;;;17.50;99.90;;;;;;4988141;28;20066;-72
2021/08/30 08:24:06;;;;;;;6.55;3.92;;;17.60;99.90;;;;;;4975443;28;20034;-73
2021/08/30 08:26:32;;;;;;;7.60;3.97;;;17.60;99.90;;;;;;4977984;28;20015;-73
2021/08/30 08:28:57;;;;;;;6.95;3.85;;;17.60;99.90;;;;;;4987721;28;20428;-72
2021/08/30 08:31:23;;;;;;;5.18;3.53;;;17.50;99.90;;;;;;4988647;28;20385;-73
2021/08/30 08:33:49;;;;;;;5.22;3.53;;;17.50;99.90;;;;;;4987524;28;20027;-73
2021/08/30 08:36:16;;;;;;;5.30;3.35;;;17.40;99.90;;;;;;4987438;28;20105;-72
2021/08/30 08:38:42;;;;;;;4.85;3.15;;;17.40;99.90;;;;;;4987769;28;20504;-73
2021/08/30 08:41:07;;;;;;;4.22;3.28;;;17.40;99.90;;;;;;4987415;28;20036;-73
2021/08/30 08:43:34;;;;;;;4.13;3.17;;;17.40;99.90;;;;;;4988142;28;20101;-72
2021/08/30 08:46:00;;;;;;;5.68;3.25;;;17.30;99.90;;;;;;4988032;28;20022;-72
2021/08/30 08:48:25;;;;;;;4.03;3.00;;;17.40;99.90;;;;;;4986905;28;20031;-73
2021/08/30 08:50:50;;;;;;;4.68;3.08;;;17.50;99.90;;;;;;4990177;28;20031;-73
2021/08/30 08:53:16;;;;;;;5.57;2.80;;;17.50;99.90;;;;;;4988123;28;20053;-73
2021/08/30 08:55:42;;;;;;;9.02;3.50;;;17.70;99.90;;;;;;4987444;28;20026;-72
2021/08/30 08:58:12;;;;;;;8.20;3.38;;;17.80;99.90;;;;;;4986968;28;20055;-73
2021/08/30 09:00:43;;;;;;;4.70;3.28;;;17.90;99.90;;;;;;4976259;28;20030;-73
2021/08/30 09:03:20;;;;;;;6.07;3.35;;;17.90;99.90;;;;;;4987242;28;20034;-72
2021/08/30 09:05:46;;;;;;;4.10;2.78;;;18.00;99.90;;;;;;4987466;28;20026;-73
2021/08/30 09:08:32;;;;;;;6.75;3.58;;;18.00;99.90;;;;;;4982155;28;20060;-73
2021/08/30 09:11:00;;;;;;;6.43;2.90;;;18.00;99.90;;;;;;4986906;28;20033;-72
2021/08/30 09:13:31;;;;;;;3.10;2.58;;;17.90;99.90;;;;;;4987442;28;20081;-72
2021/08/30 09:16:00;;;;;;;3.75;2.95;;;18.00;99.90;;;;;;4990718;28;20080;-72
2021/08/30 09:18:29;;;;;;;4.40;2.75;;;17.90;99.90;;;;;;4991155;28;20034;-72
2021/08/30 09:20:55;;;;;;;3.38;2.80;;;18.00;99.90;;;;;;4980441;28;20490;-72
2021/08/30 09:23:21;;;;;;;4.22;3.08;;;18.00;99.90;;;;;;4984017;28;20053;-72
2021/08/30 09:25:46;;;;;;;3.75;2.90;;;18.10;99.90;;;;;;4990689;28;20022;-72
2021/08/30 09:28:12;;;;;;;6.35;3.25;;;18.10;99.90;;;;;;4991053;28;20022;-72
2021/08/30 09:30:37;;;;;;;3.80;2.80;;;18.10;99.90;;;;;;4991199;28;20469;-72
2021/08/30 09:33:03;;;;;;;3.60;2.85;;;18.10;99.90;;;;;;4991023;28;20054;-72
2021/08/30 09:35:28;;;;;;;6.18;2.97;;;18.10;99.90;;;;;;4986560;28;20058;-71
2021/08/30 09:37:54;;;;;;;3.83;2.78;;;18.10;99.90;;;;;;4989001;28;20050;-72
2021/08/30 09:40:23;;;;;;;4.60;2.67;;;18.00;99.90;;;;;;4990904;28;20031;-72
2021/08/30 09:42:51;;;;;;;4.00;3.08;;;18.00;99.90;;;;;;4984613;28;20053;-72
2021/08/30 09:45:22;;;;;;;3.50;2.75;;;18.00;99.90;;;;;;4980456;28;20069;-73
2021/08/30 09:48:01;;;;;;;3.65;2.72;;;18.00;99.90;;;;;;4980807;28;20033;-72
2021/08/30 09:50:43;;;;;;;4.05;2.97;;;18.00;99.90;;;;;;4992162;28;20656;-72
2021/08/30 09:53:11;;;;;;;5.10;2.92;;;18.00;99.90;;;;;;4990509;28;20026;-72
2021/08/30 09:55:43;;;;;;;3.90;2.67;;;17.90;99.90;;;;;;4987243;28;20034;-72
2021/08/30 09:58:15;;;;;;;4.18;2.90;;;17.90;99.90;;;;;;4991481;28;20057;-72
2021/08/30 10:00:45;;;;;;;4.97;3.15;;;17.90;99.90;;;;;;4983911;28;20045;-72
2021/08/30 10:03:12;;;;;;;4.35;2.92;;;18.00;99.90;;;;;;4989515;28;20058;-72
2021/08/30 10:05:38;;;;;;;4.07;3.30;;;18.00;99.90;;;;;;4980233;28;20037;-72
2021/08/30 10:08:03;;;;;;;2.78;2.42;;;18.00;99.90;;;;;;4989347;28;20038;-72
2021/08/30 10:10:33;;;;;;;3.35;2.55;;;18.00;99.90;;;;;;4989892;28;20037;-72
2021/08/30 10:13:00;;;;;;;3.00;2.53;;;18.10;99.90;;;;;;4987631;28;20436;-73
2021/08/30 10:15:27;;;;;;;4.82;2.63;;;18.10;99.90;;;;;;4988208;28;20030;-72
2021/08/30 10:17:54;;;;;;;3.58;2.78;;;18.10;99.90;;;;;;4988002;28;20026;-72
2021/08/30 10:20:23;;;;;;;3.42;2.60;;;18.20;99.90;;;;;;4988438;28;20023;-73
2021/08/30 10:23:03;;;;;;;3.35;2.58;;;18.20;99.90;;;;;;4984078;28;20109;-72
2021/08/30 10:25:42;;;;;;;3.58;2.47;;;18.30;99.90;;;;;;4989224;28;20061;-72
2021/08/30 10:28:10;;;;;;;3.50;2.65;;;18.40;99.90;;;;;;4990009;28;20512;-72
2021/08/30 10:30:37;;;;;;;4.53;2.90;;;18.40;99.90;;;;;;4987177;28;20030;-71
2021/08/30 10:33:08;;;;;;;4.28;2.70;;;18.40;99.90;;;;;;4990065;28;20031;-72
2021/08/30 10:35:37;;;;;;;3.08;2.28;;;18.40;99.90;;;;;;4983105;28;20026;-72
2021/08/30 10:38:13;;;;;;;4.15;2.53;;;18.40;99.90;;;;;;4972081;28;20168;-72
2021/08/30 10:40:39;;;;;;;9.13;2.70;;;18.40;99.90;;;;;;4982179;28;20018;-72
2021/08/30 10:43:14;;;;;;;3.15;2.72;;;18.40;99.90;;;;;;4988752;28;20037;-71
2021/08/30 10:46:01;;;;;;;4.20;2.63;;;18.40;99.90;;;;;;4984831;28;20508;-72
2021/08/30 10:48:40;;;;;;;3.92;2.65;;;18.40;99.90;;;;;;4971345;28;20089;-72
2021/08/30 10:51:27;;;;;;;4.75;2.58;;;18.40;99.90;;;;;;4983418;28;20073;-72
2021/08/30 10:53:59;;;;;;;3.33;2.25;;;18.40;99.90;;;;;;4989240;28;20484;-72
2021/08/30 10:56:32;;;;;;;3.40;2.08;;;18.40;99.90;;;;;;4986672;28;20485;-72
2021/08/30 10:59:06;;;;;;;5.55;2.70;;;18.40;99.90;;;;;;4989225;28;20097;-72
2021/08/30 11:01:32;;;;;;;3.67;2.40;;;18.40;99.90;;;;;;4989919;28;20042;-72
2021/08/30 11:03:58;;;;;;;4.57;2.53;;;18.40;99.90;;;;;;4989810;28;20022;-72
2021/08/30 11:06:24;;;;;;;3.08;2.60;;;18.40;99.90;;;;;;4987461;28;20121;-72
2021/08/30 11:08:51;;;;;;;4.40;2.72;;;18.30;99.90;;;;;;4990110;28;20022;-72
2021/08/30 11:11:21;;;;;;;3.50;2.65;;;18.30;99.90;;;;;;4988517;28;20065;-72
2021/08/30 11:14:07;;;;;;;3.45;2.45;;;18.50;99.90;;;;;;4988714;28;20113;-73
2021/08/30 11:16:34;;;;;;;3.10;2.35;;;18.60;99.90;;;;;;4988411;28;20027;-73
2021/08/30 11:19:03;;;;;;;4.60;2.88;;;18.60;99.90;;;;;;4988806;28;20026;-73
2021/08/30 11:21:51;;;;;;;4.45;2.75;;;18.70;99.90;;;;;;4978173;28;20572;-72
2021/08/30 11:24:40;;;;;;;3.97;2.83;;;18.90;99.90;;;;;;4982482;28;20041;-73
2021/08/30 11:27:17;;;;;;;4.15;2.65;;;19.00;99.90;;;;;;4980408;28;20431;-72
2021/08/30 11:29:44;;;;;;;3.72;2.42;;;19.10;99.90;;;;;;4985596;28;20077;-72
2021/08/30 11:32:10;;;;;;;3.60;2.33;;;19.20;99.90;;;;;;4988960;28;20389;-72
2021/08/30 11:34:37;;;;;;;2.55;1.92;;;19.30;99.90;;;;;;4988303;28;20034;-72
2021/08/30 11:37:05;;;;;;;3.55;2.53;;;19.30;99.90;;;;;;4987265;28;20060;-72
2021/08/30 11:39:34;;;;;;;3.20;2.58;;;19.30;99.90;;;;;;4988700;28;20023;-72
2021/08/30 11:42:03;;;;;;;2.83;2.25;;;19.30;99.90;;;;;;4980860;28;20023;-72
2021/08/30 11:44:30;;;;;;;3.33;2.15;;;19.40;99.90;;;;;;4980556;28;20093;-72
2021/08/30 11:46:58;;;;;;;3.75;2.13;;;19.50;99.90;;;;;;4988539;28;20045;-72
2021/08/30 11:49:30;;;;;;;6.35;2.00;;;19.50;99.90;;;;;;4988402;28;20113;-72
2021/08/30 11:52:01;;;;;;;2.83;2.15;;;19.60;99.90;;;;;;4988324;28;20026;-72
2021/08/30 11:54:32;;;;;;;3.80;1.95;;;19.60;99.90;;;;;;4978737;28;20077;-72
2021/08/30 11:57:00;;;;;;;2.83;1.85;;;19.70;99.90;;;;;;4988595;28;20034;-72
2021/08/30 11:59:32;;;;;;;3.90;1.90;;;20.00;99.90;;;;;;4979750;28;20162;-72
2021/08/30 12:01:57;;;;;;;3.42;1.80;;;20.10;99.90;;;;;;4987426;28;20027;-73
2021/08/30 12:04:27;;;;;;;2.85;2.10;;;20.10;99.90;;;;;;4987954;28;20027;-72
2021/08/30 12:06:55;;;;;;;3.55;1.73;;;20.00;99.90;;;;;;4981760;28;20022;-73
2021/08/30 12:09:21;;;;;;;3.60;1.80;;;20.00;99.90;;;;;;4988267;28;20034;-72
2021/08/30 12:11:52;;;;;;;2.05;1.85;;;;;;;;;;4988640;28;20033;-71
2021/08/30 12:14:21;;;;;;;3.30;1.70;;;19.90;99.90;;;;;;4988535;28;20031;-72
2021/08/30 12:16:48;;;;;;;2.40;1.80;;;19.60;99.90;;;;;;4982072;28;20065;-72
2021/08/30 12:19:13;;;;;;;2.53;1.88;;;19.50;99.90;;;;;;4984942;28;20488;-71
2021/08/30 12:21:41;;;;;;;3.50;1.95;;;19.40;99.90;;;;;;4987967;28;20080;-72
2021/08/30 12:24:07;;;;;;;3.40;2.20;;;;;;;;;;4981398;28;20034;-72
2021/08/30 12:26:35;;;;;;;3.03;2.20;;;;;;;;;;4986903;28;20561;-72
2021/08/30 12:29:02;;;;;;;3.38;2.00;;;;;;;;;;4988039;28;20096;-72
2021/08/30 12:31:30;;;;;;;3.42;2.25;;;;;;;;;;4984151;28;20027;-72
2021/08/30 12:34:07;;;;;;;2.33;2.13;;;;;;;;;;4984958;28;20507;-72
2021/08/30 12:36:33;;;;;;;2.33;2.05;;;;;;;;;;4981886;28;20054;-72
2021/08/30 12:38:59;;;;;;;4.68;2.28;;;;;;;;;;4984317;28;20522;-72
2021/08/30 12:41:25;;;;;;;2.33;2.13;;;;;;;;;;4973950;28;20162;-72
2021/08/30 12:43:51;;;;;;;2.00;1.55;;;;;;;;;;4987756;28;20023;-72
2021/08/30 12:46:17;;;;;;;2.50;1.77;;;;;;;;;;4986705;28;20030;-72
2021/08/30 12:48:43;;;;;;;3.63;1.85;;;;;;;;;;4987846;28;20045;-72
2021/08/30 12:51:10;;;;;;;2.25;1.75;;;;;;;;;;4990159;28;20034;-72
2021/08/30 12:53:36;;;;;;;2.63;1.90;;;;;;;;;;4985494;28;20033;-72
2021/08/30 12:56:03;;;;;;;4.82;2.10;;;;;;;;;;4983187;28;20736;-73
2021/08/30 12:58:28;;;;;;;2.13;1.90;;;19.30;99.90;;;;;;4989803;28;20050;-73